createdAt,value
2022-10-18T00:00:27.899Z,981.02
2022-10-18T00:01:27.888Z,981.04
2022-10-18T00:02:28.166Z,981.04
2022-10-18T00:03:27.949Z,981.03
2022-10-18T00:04:27.850Z,981.05
2022-10-18T00:05:27.837Z,981.05
2022-10-18T00:06:27.823Z,981.01
2022-10-18T00:07:28.275Z,981.05
2022-10-18T00:08:27.796Z,980.96
2022-10-18T00:09:27.784Z,981.02
2022-10-18T00:10:27.766Z,981.00
2022-10-18T00:11:27.766Z,981.02
2022-10-18T00:12:27.995Z,980.98
2022-10-18T00:13:27.740Z,981.02
2022-10-18T00:14:27.715Z,980.97
2022-10-18T00:15:27.720Z,981.02
2022-10-18T00:16:27.942Z,981.04
2022-10-18T00:17:27.925Z,981.02
2022-10-18T00:18:27.680Z,980.98
2022-10-18T00:19:29.303Z,981.03
2022-10-18T00:20:27.640Z,981.01
2022-10-18T00:21:27.868Z,981.03
2022-10-18T00:22:27.685Z,981.08
2022-10-18T00:23:27.609Z,981.07
2022-10-18T00:24:27.590Z,981.09
2022-10-18T00:25:27.587Z,981.11
2022-10-18T00:26:27.808Z,981.12
2022-10-18T00:27:27.556Z,981.07
2022-10-18T00:28:27.560Z,981.11
2022-10-18T00:29:27.526Z,981.08
2022-10-18T00:30:27.507Z,981.04
2022-10-18T00:31:27.736Z,981.02
2022-10-18T00:32:27.710Z,980.98
2022-10-18T00:33:27.474Z,981.01
2022-10-18T00:34:27.468Z,980.95
2022-10-18T00:35:27.446Z,980.87
2022-10-18T00:36:27.672Z,980.90
2022-10-18T00:37:27.440Z,980.89
2022-10-18T00:38:27.403Z,980.81
2022-10-18T00:39:27.393Z,980.74
2022-10-18T00:40:27.386Z,980.77
2022-10-18T00:41:27.609Z,980.74
2022-10-18T00:42:27.445Z,980.74
2022-10-18T00:43:27.349Z,980.78
2022-10-18T00:44:27.332Z,980.84
2022-10-18T00:45:27.318Z,980.83
2022-10-18T00:46:27.540Z,980.87
2022-10-18T00:47:27.316Z,980.93
2022-10-18T00:48:27.280Z,980.92
2022-10-18T00:49:27.267Z,981.04
2022-10-18T00:50:27.268Z,981.05
2022-10-18T00:51:27.479Z,981.07
2022-10-18T00:52:27.370Z,981.12
2022-10-18T00:53:27.214Z,981.13
2022-10-18T00:54:27.203Z,981.16
2022-10-18T00:55:27.195Z,981.16
2022-10-18T00:56:27.204Z,981.15
2022-10-18T00:57:27.172Z,981.14
2022-10-18T00:58:27.146Z,981.10
2022-10-18T00:59:27.140Z,981.11
2022-10-18T01:00:27.136Z,981.11
2022-10-18T01:01:28.486Z,981.06
2022-10-18T01:02:27.103Z,981.08
2022-10-18T01:03:27.081Z,981.17
2022-10-18T01:04:27.071Z,981.21
2022-10-18T01:05:27.054Z,981.22
2022-10-18T01:06:27.279Z,981.24
2022-10-18T01:07:27.032Z,981.24
2022-10-18T01:08:27.019Z,981.28
2022-10-18T01:09:27.007Z,981.27
2022-10-18T01:10:26.993Z,981.27
2022-10-18T01:11:27.238Z,981.28
2022-10-18T01:12:26.970Z,981.27
2022-10-18T01:13:26.950Z,981.27
2022-10-18T01:14:26.939Z,981.23
2022-10-18T01:15:26.926Z,981.22
2022-10-18T01:16:27.161Z,981.19
2022-10-18T01:17:26.905Z,981.20
2022-10-18T01:18:26.889Z,981.16
2022-10-18T01:19:26.874Z,981.18
2022-10-18T01:20:26.857Z,981.16
2022-10-18T01:21:27.087Z,981.11
2022-10-18T01:22:26.834Z,981.14
2022-10-18T01:23:26.825Z,981.07
2022-10-18T01:24:26.812Z,981.09
2022-10-18T01:25:26.802Z,981.10
2022-10-18T01:26:26.781Z,981.11
2022-10-18T01:27:27.158Z,981.12
2022-10-18T01:28:26.783Z,981.12
2022-10-18T01:29:26.753Z,981.13
2022-10-18T01:30:26.748Z,981.22
2022-10-18T01:31:26.731Z,981.25
2022-10-18T01:32:26.939Z,981.21
2022-10-18T01:33:26.699Z,981.20
2022-10-18T01:34:26.679Z,981.16
2022-10-18T01:35:26.669Z,981.09
2022-10-18T01:36:26.657Z,981.05
2022-10-18T01:37:26.878Z,981.05
2022-10-18T01:38:26.627Z,981.04
2022-10-18T01:39:26.617Z,981.04
2022-10-18T01:40:26.599Z,981.06
2022-10-18T01:41:26.592Z,981.08
2022-10-18T01:42:26.815Z,981.08
2022-10-18T01:43:26.575Z,981.10
2022-10-18T01:44:26.549Z,981.05
2022-10-18T01:45:26.545Z,981.10
2022-10-18T01:46:26.532Z,981.08
2022-10-18T01:47:26.751Z,981.09
2022-10-18T01:48:26.495Z,981.04
2022-10-18T01:49:26.485Z,981.03
2022-10-18T01:50:26.472Z,981.01
2022-10-18T01:51:26.471Z,980.96
2022-10-18T01:52:26.688Z,981.02
2022-10-18T01:53:26.443Z,981.06
2022-10-18T01:54:26.429Z,981.07
2022-10-18T01:55:26.422Z,981.06
2022-10-18T01:56:26.392Z,981.05
2022-10-18T01:57:26.632Z,981.02
2022-10-18T01:58:26.380Z,980.96
2022-10-18T01:59:26.360Z,980.87
2022-10-18T02:00:26.356Z,980.89
2022-10-18T02:01:26.338Z,980.91
2022-10-18T02:02:26.559Z,980.94
2022-10-18T02:03:26.307Z,980.96
2022-10-18T02:04:26.287Z,981.04
2022-10-18T02:05:26.300Z,981.08
2022-10-18T02:06:26.269Z,981.08
2022-10-18T02:07:26.495Z,981.10
2022-10-18T02:08:26.248Z,981.10
2022-10-18T02:09:26.235Z,981.14
2022-10-18T02:10:26.222Z,981.09
2022-10-18T02:11:26.441Z,981.07
2022-10-18T02:12:26.195Z,981.08
2022-10-18T02:13:26.184Z,981.10
2022-10-18T02:14:26.164Z,981.10
2022-10-18T02:15:26.163Z,981.09
2022-10-18T02:16:26.380Z,981.09
2022-10-18T02:17:26.130Z,981.03
2022-10-18T02:18:26.107Z,981.09
2022-10-18T02:19:26.152Z,981.05
2022-10-18T02:20:26.093Z,981.03
2022-10-18T02:21:26.073Z,981.00
2022-10-18T02:22:26.308Z,981.04
2022-10-18T02:23:26.050Z,981.04
2022-10-18T02:24:26.037Z,980.99
2022-10-18T02:25:26.019Z,981.01
2022-10-18T02:26:26.007Z,980.99
2022-10-18T02:27:26.240Z,980.94
2022-10-18T02:28:25.990Z,980.95
2022-10-18T02:29:25.975Z,980.97
2022-10-18T02:30:25.963Z,980.96
2022-10-18T02:31:25.950Z,980.96
2022-10-18T02:32:26.179Z,980.92
2022-10-18T02:33:25.915Z,980.95
2022-10-18T02:34:25.904Z,980.97
2022-10-18T02:35:25.892Z,980.97
2022-10-18T02:36:25.873Z,980.99
2022-10-18T02:38:25.850Z,981.02
2022-10-18T02:39:25.849Z,981.03
2022-10-18T02:40:25.823Z,981.06
2022-10-18T02:41:25.820Z,981.07
2022-10-18T02:42:26.032Z,981.04
2022-10-18T02:43:25.788Z,981.08
2022-10-18T02:44:25.772Z,981.09
2022-10-18T02:45:25.758Z,981.02
2022-10-18T02:47:25.971Z,981.00
2022-10-18T02:48:25.726Z,980.96
2022-10-18T02:49:25.717Z,980.99
2022-10-18T02:50:25.695Z,980.90
2022-10-18T02:51:25.685Z,980.95
2022-10-18T02:52:25.909Z,980.96
2022-10-18T02:53:25.661Z,980.96
2022-10-18T02:54:25.637Z,981.00
2022-10-18T02:55:25.679Z,981.00
2022-10-18T02:56:25.612Z,981.01
2022-10-18T02:57:25.845Z,981.05
2022-10-18T02:58:25.603Z,981.06
2022-10-18T02:59:25.625Z,981.08
2022-10-18T03:00:25.706Z,981.12
2022-10-18T03:01:25.578Z,981.19
2022-10-18T03:02:25.791Z,981.18
2022-10-18T03:03:25.543Z,981.19
2022-10-18T03:04:25.561Z,981.18
2022-10-18T03:05:25.510Z,981.16
2022-10-18T03:06:25.492Z,981.15
2022-10-18T03:07:25.750Z,981.13
2022-10-18T03:08:25.470Z,981.10
2022-10-18T03:09:25.459Z,981.08
2022-10-18T03:10:25.440Z,981.12
2022-10-18T03:11:25.431Z,981.13
2022-10-18T03:12:25.651Z,981.12
2022-10-18T03:13:25.455Z,981.13
2022-10-18T03:14:25.388Z,981.18
2022-10-18T03:15:25.382Z,981.19
2022-10-18T03:16:25.375Z,981.20
2022-10-18T03:17:25.587Z,981.17
2022-10-18T03:18:25.344Z,981.18
2022-10-18T03:19:25.585Z,981.20
2022-10-18T03:20:25.317Z,981.25
2022-10-18T03:21:25.294Z,981.20
2022-10-18T03:22:25.538Z,981.21
2022-10-18T03:23:25.283Z,981.22
2022-10-18T03:24:25.255Z,981.24
2022-10-18T03:25:25.245Z,981.24
2022-10-18T03:26:25.224Z,981.21
2022-10-18T03:27:25.458Z,981.21
2022-10-18T03:28:25.277Z,981.21
2022-10-18T03:29:25.210Z,981.22
2022-10-18T03:30:25.177Z,981.22
2022-10-18T03:31:25.469Z,981.21
2022-10-18T03:32:25.391Z,981.18
2022-10-18T03:33:25.142Z,981.16
2022-10-18T03:34:25.128Z,981.16
2022-10-18T03:35:25.146Z,981.18
2022-10-18T03:36:25.095Z,981.14
2022-10-18T03:37:25.328Z,981.10
2022-10-18T03:38:25.076Z,981.15
2022-10-18T03:39:25.089Z,981.16
2022-10-18T03:40:25.102Z,981.15
2022-10-18T03:41:25.035Z,981.18
2022-10-18T03:42:25.286Z,981.21
2022-10-18T03:43:25.016Z,981.18
2022-10-18T03:44:25.006Z,981.26
2022-10-18T03:45:28.905Z,981.32
2022-10-18T03:46:25.965Z,981.28
2022-10-18T03:47:25.186Z,981.31
2022-10-18T03:48:24.952Z,981.28
2022-10-18T03:49:24.970Z,981.31
2022-10-18T03:50:24.913Z,981.31
2022-10-18T03:51:24.906Z,981.34
2022-10-18T03:52:32.397Z,981.34
2022-10-18T03:53:24.880Z,981.32
2022-10-18T03:54:24.888Z,981.30
2022-10-18T03:55:24.858Z,981.31
2022-10-18T03:56:24.836Z,981.32
2022-10-18T03:57:25.117Z,981.25
2022-10-18T03:58:25.454Z,981.24
2022-10-18T03:59:25.557Z,981.27
2022-10-18T04:00:24.787Z,981.27
2022-10-18T04:01:24.827Z,981.32
2022-10-18T04:02:25.116Z,981.31
2022-10-18T04:03:24.852Z,981.29
2022-10-18T04:04:24.736Z,981.31
2022-10-18T04:05:24.723Z,981.28
2022-10-18T04:06:24.709Z,981.30
2022-10-18T04:07:24.982Z,981.24
2022-10-18T04:08:24.786Z,981.29
2022-10-18T04:09:24.688Z,981.24
2022-10-18T04:10:24.653Z,981.23
2022-10-18T04:11:24.656Z,981.25
2022-10-18T04:12:24.883Z,981.21
2022-10-18T04:13:24.638Z,981.23
2022-10-18T04:14:24.617Z,981.24
2022-10-18T04:15:25.318Z,981.29
2022-10-18T04:16:24.728Z,981.32
2022-10-18T04:17:24.818Z,981.36
2022-10-18T04:18:24.579Z,981.36
2022-10-18T04:19:24.554Z,981.36
2022-10-18T04:20:24.530Z,981.38
2022-10-18T04:21:24.517Z,981.39
2022-10-18T04:22:24.998Z,981.43
2022-10-18T04:23:24.535Z,981.41
2022-10-18T04:24:25.248Z,981.40
2022-10-18T04:25:25.468Z,981.43
2022-10-18T04:26:24.452Z,981.45
2022-10-18T04:27:25.718Z,981.39
2022-10-18T04:28:24.496Z,981.39
2022-10-18T04:29:25.156Z,981.40
2022-10-18T04:30:24.395Z,981.43
2022-10-18T04:31:24.393Z,981.45
2022-10-18T04:32:25.364Z,981.45
2022-10-18T04:33:24.522Z,981.43
2022-10-18T04:34:24.365Z,981.46
2022-10-18T04:35:24.362Z,981.46
2022-10-18T04:36:24.369Z,981.46
2022-10-18T04:37:24.552Z,981.45
2022-10-18T04:38:24.353Z,981.48
2022-10-18T04:39:24.318Z,981.51
2022-10-18T04:40:24.308Z,981.49
2022-10-18T04:41:24.291Z,981.46
2022-10-18T04:42:24.782Z,981.50
2022-10-18T04:43:24.316Z,981.48
2022-10-18T04:44:24.217Z,981.51
2022-10-18T04:45:24.337Z,981.53
2022-10-18T04:46:24.195Z,981.56
2022-10-18T04:47:24.424Z,981.55
2022-10-18T04:48:24.166Z,981.51
2022-10-18T04:49:24.151Z,981.46
2022-10-18T04:50:24.203Z,981.45
2022-10-18T04:51:24.222Z,981.47
2022-10-18T04:52:25.215Z,981.46
2022-10-18T04:53:24.193Z,981.43
2022-10-18T04:54:26.541Z,981.45
2022-10-18T04:55:24.081Z,981.53
2022-10-18T04:56:24.064Z,981.55
2022-10-18T04:57:25.053Z,981.49
2022-10-18T04:58:24.044Z,981.52
2022-10-18T04:59:24.074Z,981.46
2022-10-18T05:00:24.070Z,981.44
2022-10-18T05:01:24.057Z,981.48
2022-10-18T05:02:24.221Z,981.51
2022-10-18T05:03:23.973Z,981.51
2022-10-18T05:04:24.004Z,981.54
2022-10-18T05:05:27.023Z,981.49
2022-10-18T05:06:24.929Z,981.43
2022-10-18T05:07:24.194Z,981.45
2022-10-18T05:08:24.907Z,981.51
2022-10-18T05:09:23.956Z,981.54
2022-10-18T05:10:23.898Z,981.48
2022-10-18T05:11:23.882Z,981.49
2022-10-18T05:12:24.087Z,981.50
2022-10-18T05:13:23.842Z,981.55
2022-10-18T05:14:23.839Z,981.58
2022-10-18T05:15:23.815Z,981.54
2022-10-18T05:16:23.877Z,981.57
2022-10-18T05:17:24.694Z,981.55
2022-10-18T05:18:23.772Z,981.57
2022-10-18T05:19:23.763Z,981.61
2022-10-18T05:20:23.684Z,981.66
2022-10-18T05:21:23.763Z,981.66
2022-10-18T05:22:24.493Z,981.61
2022-10-18T05:23:24.701Z,981.65
2022-10-18T05:24:26.917Z,981.65
2022-10-18T05:25:23.635Z,981.57
2022-10-18T05:26:23.678Z,981.55
2022-10-18T05:27:24.195Z,981.55
2022-10-18T05:28:41.033Z,981.57
2022-10-18T05:29:24.746Z,981.60
2022-10-18T05:30:24.360Z,981.58
2022-10-18T05:31:23.560Z,981.58
2022-10-18T05:32:23.818Z,981.55
2022-10-18T05:33:23.574Z,981.57
2022-10-18T05:34:23.637Z,981.54
2022-10-18T05:35:24.306Z,981.51
2022-10-18T05:36:23.495Z,981.55
2022-10-18T05:37:27.559Z,981.50
2022-10-18T05:38:23.505Z,981.50
2022-10-18T05:39:23.492Z,981.53
2022-10-18T05:40:23.428Z,981.50
2022-10-18T05:41:23.419Z,981.51
2022-10-18T05:42:23.693Z,981.48
2022-10-18T05:43:23.392Z,981.54
2022-10-18T05:44:23.376Z,981.50
2022-10-18T05:45:23.375Z,981.55
2022-10-18T05:46:23.384Z,981.53
2022-10-18T05:47:23.640Z,981.47
2022-10-18T05:48:23.347Z,981.48
2022-10-18T05:49:23.320Z,981.49
2022-10-18T05:50:23.481Z,981.51
2022-10-18T05:51:23.289Z,981.54
2022-10-18T05:52:23.508Z,981.56
2022-10-18T05:53:36.109Z,981.57
2022-10-18T05:54:25.009Z,981.54
2022-10-18T05:55:23.238Z,981.60
2022-10-18T05:56:23.277Z,981.61
2022-10-18T05:57:23.542Z,981.56
2022-10-18T05:58:23.276Z,981.57
2022-10-18T05:59:23.178Z,981.55
2022-10-18T06:00:24.896Z,981.64
2022-10-18T06:01:23.184Z,981.68
2022-10-18T06:02:24.042Z,981.63
2022-10-18T06:03:23.264Z,981.64
2022-10-18T06:04:23.187Z,981.62
2022-10-18T06:05:23.193Z,981.64
2022-10-18T06:06:23.092Z,981.62
2022-10-18T06:07:23.441Z,981.61
2022-10-18T06:08:23.321Z,981.60
2022-10-18T06:09:23.991Z,981.68
2022-10-18T06:10:23.798Z,981.69
2022-10-18T06:11:23.060Z,981.65
2022-10-18T06:12:23.239Z,981.69
2022-10-18T06:13:23.031Z,981.71
2022-10-18T06:14:22.979Z,981.73
2022-10-18T06:15:22.969Z,981.70
2022-10-18T06:16:26.199Z,981.71
2022-10-18T06:17:23.186Z,981.66
2022-10-18T06:18:22.929Z,981.64
2022-10-18T06:19:23.847Z,981.60
2022-10-18T06:20:22.906Z,981.58
2022-10-18T06:21:22.885Z,981.57
2022-10-18T06:22:23.210Z,981.57
2022-10-18T06:23:22.865Z,981.59
2022-10-18T06:24:22.855Z,981.58
2022-10-18T06:25:22.828Z,981.56
2022-10-18T06:26:22.853Z,981.61
2022-10-18T06:27:23.034Z,981.62
2022-10-18T06:28:22.887Z,981.68
2022-10-18T06:29:22.902Z,981.67
2022-10-18T06:30:22.782Z,981.63
2022-10-18T06:31:23.531Z,981.69
2022-10-18T06:32:23.720Z,981.64
2022-10-18T06:33:22.731Z,981.64
2022-10-18T06:34:22.713Z,981.61
2022-10-18T06:35:22.748Z,981.58
2022-10-18T06:36:22.753Z,981.60
2022-10-18T06:37:22.924Z,981.54
2022-10-18T06:38:22.728Z,981.57
2022-10-18T06:39:22.820Z,981.66
2022-10-18T06:40:22.628Z,981.68
2022-10-18T06:41:22.647Z,981.72
2022-10-18T06:42:22.911Z,981.76
2022-10-18T06:43:22.627Z,981.77
2022-10-18T06:44:22.584Z,981.77
2022-10-18T06:45:22.603Z,981.79
2022-10-18T06:46:23.588Z,981.85
2022-10-18T06:47:22.537Z,981.83
2022-10-18T06:48:23.259Z,981.85
2022-10-18T06:49:22.576Z,981.90
2022-10-18T06:50:22.502Z,981.93
2022-10-18T06:51:22.733Z,981.96
2022-10-18T06:52:22.584Z,981.91
2022-10-18T06:53:23.394Z,982.02
2022-10-18T06:54:22.484Z,982.00
2022-10-18T06:55:22.504Z,982.09
2022-10-18T06:56:22.661Z,982.11
2022-10-18T06:57:22.422Z,982.16
2022-10-18T06:58:22.442Z,982.18
2022-10-18T06:59:24.336Z,982.14
2022-10-18T07:00:22.371Z,982.19
2022-10-18T07:01:22.393Z,982.20
2022-10-18T07:02:22.761Z,982.19
2022-10-18T07:03:22.363Z,982.25
2022-10-18T07:04:22.316Z,982.22
2022-10-18T07:05:22.352Z,982.22
2022-10-18T07:06:22.426Z,982.20
2022-10-18T07:07:22.808Z,982.17
2022-10-18T07:08:22.617Z,982.22
2022-10-18T07:09:22.256Z,982.19
2022-10-18T07:10:23.059Z,982.17
2022-10-18T07:11:23.165Z,982.18
2022-10-18T07:12:22.466Z,982.13
2022-10-18T07:13:37.572Z,982.22
2022-10-18T07:14:28.174Z,982.17
2022-10-18T07:15:23.238Z,982.15
2022-10-18T07:16:22.184Z,982.20
2022-10-18T07:17:22.674Z,982.21
2022-10-18T07:18:22.254Z,982.19
2022-10-18T07:19:22.112Z,982.24
2022-10-18T07:20:22.930Z,982.26
2022-10-18T07:21:22.188Z,982.27
2022-10-18T07:22:24.193Z,982.22
2022-10-18T07:23:22.422Z,982.26
2022-10-18T07:24:22.796Z,982.22
2022-10-18T07:25:23.882Z,982.22
2022-10-18T07:26:22.792Z,982.20
2022-10-18T07:27:22.451Z,982.13
2022-10-18T07:28:22.003Z,982.10
2022-10-18T07:29:22.806Z,982.05
2022-10-18T07:30:22.053Z,982.03
2022-10-18T07:31:21.967Z,982.00
2022-10-18T07:32:22.456Z,982.04
2022-10-18T07:33:21.946Z,981.99
2022-10-18T07:34:22.895Z,981.97
2022-10-18T07:35:21.932Z,981.95
2022-10-18T07:36:21.896Z,982.02
2022-10-18T07:37:25.393Z,982.00
2022-10-18T07:38:22.873Z,982.00
2022-10-18T07:39:21.868Z,982.02
2022-10-18T07:40:21.985Z,981.97
2022-10-18T07:41:22.066Z,981.97
2022-10-18T07:42:21.862Z,982.01
2022-10-18T07:43:21.805Z,981.97
2022-10-18T07:44:21.842Z,981.98
2022-10-18T07:45:22.581Z,982.01
2022-10-18T07:46:22.019Z,982.00
2022-10-18T07:47:21.751Z,982.01
2022-10-18T07:48:21.790Z,982.09
2022-10-18T07:49:21.787Z,982.08
2022-10-18T07:50:21.709Z,982.06
2022-10-18T07:51:21.958Z,982.02
2022-10-18T07:52:21.762Z,982.00
2022-10-18T07:53:21.677Z,982.02
2022-10-18T07:54:21.666Z,982.01
2022-10-18T07:55:21.656Z,982.01
2022-10-18T07:56:21.938Z,982.02
2022-10-18T07:57:21.625Z,982.02
2022-10-18T07:58:21.615Z,982.08
2022-10-18T07:59:21.634Z,982.06
2022-10-18T08:00:21.622Z,982.05
2022-10-18T08:01:22.177Z,982.08
2022-10-18T08:02:21.564Z,982.11
2022-10-18T08:03:21.585Z,982.08
2022-10-18T08:04:21.533Z,982.07
2022-10-18T08:05:21.576Z,982.05
2022-10-18T08:06:21.761Z,982.05
2022-10-18T08:07:21.508Z,982.04
2022-10-18T08:08:21.480Z,982.07
2022-10-18T08:09:21.469Z,982.09
2022-10-18T08:10:21.459Z,981.99
2022-10-18T08:11:21.685Z,982.07
2022-10-18T08:12:21.441Z,982.02
2022-10-18T08:13:21.419Z,982.04
2022-10-18T08:14:21.407Z,982.05
2022-10-18T08:15:21.387Z,982.08
2022-10-18T08:16:21.700Z,982.13
2022-10-18T08:17:21.365Z,982.16
2022-10-18T08:18:21.357Z,982.14
2022-10-18T08:19:21.345Z,982.23
2022-10-18T08:20:30.362Z,982.21
2022-10-18T08:21:22.581Z,982.26
2022-10-18T08:22:21.304Z,982.20
2022-10-18T08:23:21.285Z,982.28
2022-10-18T08:24:21.286Z,982.24
2022-10-18T08:25:21.294Z,982.26
2022-10-18T08:26:21.494Z,982.28
2022-10-18T08:27:21.232Z,982.28
2022-10-18T08:28:21.252Z,982.31
2022-10-18T08:29:24.938Z,982.30
2022-10-18T08:30:22.192Z,982.28
2022-10-18T08:31:21.464Z,982.26
2022-10-18T08:32:21.173Z,982.31
2022-10-18T08:33:21.151Z,982.27
2022-10-18T08:34:21.139Z,982.30
2022-10-18T08:35:21.136Z,982.27
2022-10-18T08:36:21.371Z,982.23
2022-10-18T08:37:21.118Z,982.25
2022-10-18T08:38:21.101Z,982.23
2022-10-18T08:39:21.969Z,982.26
2022-10-18T08:40:21.109Z,982.26
2022-10-18T08:41:21.286Z,982.24
2022-10-18T08:42:21.040Z,982.22
2022-10-18T08:43:21.924Z,982.25
2022-10-18T08:44:21.028Z,982.25
2022-10-18T08:45:37.348Z,982.24
2022-10-18T08:46:22.245Z,982.27
2022-10-18T08:47:20.969Z,982.27
2022-10-18T08:48:20.989Z,982.23
2022-10-18T08:49:20.947Z,982.18
2022-10-18T08:50:20.944Z,982.15
2022-10-18T08:51:21.172Z,982.06
2022-10-18T08:52:20.910Z,982.12
2022-10-18T08:53:20.893Z,982.12
2022-10-18T08:54:20.890Z,982.10
2022-10-18T08:55:20.871Z,982.13
2022-10-18T08:56:22.042Z,982.08
2022-10-18T08:57:20.862Z,982.08
2022-10-18T08:58:20.869Z,982.11
2022-10-18T08:59:24.667Z,982.03
2022-10-18T09:00:20.829Z,982.08
2022-10-18T09:01:21.041Z,982.04
2022-10-18T09:02:20.816Z,982.06
2022-10-18T09:03:20.816Z,981.99
2022-10-18T09:04:20.748Z,982.03
2022-10-18T09:05:20.736Z,982.09
2022-10-18T09:06:23.425Z,982.13
2022-10-18T09:07:20.726Z,982.16
2022-10-18T09:08:20.715Z,982.19
2022-10-18T09:09:20.720Z,982.15
2022-10-18T09:10:20.667Z,982.21
2022-10-18T09:11:20.756Z,982.19
2022-10-18T09:12:20.888Z,982.26
2022-10-18T09:13:20.627Z,982.25
2022-10-18T09:14:20.653Z,982.27
2022-10-18T09:15:20.619Z,982.24
2022-10-18T09:16:20.594Z,982.28
2022-10-18T09:17:20.810Z,982.21
2022-10-18T09:18:20.565Z,982.24
2022-10-18T09:19:20.553Z,982.24
2022-10-18T09:20:20.551Z,982.19
2022-10-18T09:21:21.304Z,982.18
2022-10-18T09:22:20.777Z,982.19
2022-10-18T09:23:20.515Z,982.15
2022-10-18T09:24:20.500Z,982.12
2022-10-18T09:25:20.508Z,982.11
2022-10-18T09:26:20.458Z,982.13
2022-10-18T09:27:20.942Z,982.18
2022-10-18T09:28:20.436Z,982.14
2022-10-18T09:29:20.461Z,982.09
2022-10-18T09:30:20.407Z,982.07
2022-10-18T09:31:20.389Z,982.08
2022-10-18T09:32:20.642Z,982.06
2022-10-18T09:33:20.415Z,982.05
2022-10-18T09:34:20.375Z,982.04
2022-10-18T09:35:20.348Z,982.02
2022-10-18T09:36:20.330Z,982.03
2022-10-18T09:37:20.596Z,982.02
2022-10-18T09:38:20.322Z,981.91
2022-10-18T09:39:20.326Z,981.89
2022-10-18T09:40:20.352Z,981.83
2022-10-18T09:41:20.994Z,981.83
2022-10-18T09:42:21.000Z,981.81
2022-10-18T09:43:20.271Z,981.81
2022-10-18T09:44:20.241Z,981.78
2022-10-18T09:45:20.235Z,981.80
2022-10-18T09:46:20.210Z,981.81
2022-10-18T09:47:20.484Z,981.82
2022-10-18T09:48:20.212Z,981.82
2022-10-18T09:49:20.186Z,981.83
2022-10-18T09:50:20.178Z,981.87
2022-10-18T09:51:20.143Z,981.83
2022-10-18T09:52:20.403Z,981.84
2022-10-18T09:53:27.154Z,981.79
2022-10-18T09:54:20.094Z,981.83
2022-10-18T09:55:20.082Z,981.88
2022-10-18T09:56:22.024Z,981.81
2022-10-18T09:57:20.311Z,981.85
2022-10-18T09:58:20.049Z,981.87
2022-10-18T09:59:20.033Z,981.86
2022-10-18T10:00:20.025Z,981.87
2022-10-18T10:01:20.028Z,981.85
2022-10-18T10:02:20.245Z,981.84
2022-10-18T10:03:19.983Z,981.83
2022-10-18T10:04:19.972Z,981.82
2022-10-18T10:05:19.950Z,981.85
2022-10-18T10:06:19.938Z,981.83
2022-10-18T10:07:20.160Z,981.82
2022-10-18T10:08:19.909Z,981.82
2022-10-18T10:09:19.910Z,981.83
2022-10-18T10:10:19.885Z,981.86
2022-10-18T10:11:19.876Z,981.84
2022-10-18T10:12:20.107Z,981.85
2022-10-18T10:13:19.848Z,981.89
2022-10-18T10:14:19.837Z,981.83
2022-10-18T10:15:19.827Z,981.88
2022-10-18T10:16:19.822Z,981.87
2022-10-18T10:17:20.035Z,981.89
2022-10-18T10:18:19.782Z,981.84
2022-10-18T10:19:19.773Z,981.86
2022-10-18T10:20:19.758Z,981.86
2022-10-18T10:21:19.743Z,981.79
2022-10-18T10:22:19.964Z,981.81
2022-10-18T10:23:19.724Z,981.77
2022-10-18T10:24:19.700Z,981.78
2022-10-18T10:25:19.700Z,981.73
2022-10-18T10:26:19.674Z,981.75
2022-10-18T10:27:19.900Z,981.76
2022-10-18T10:28:19.651Z,981.70
2022-10-18T10:29:33.520Z,981.70
2022-10-18T10:30:20.630Z,981.76
2022-10-18T10:31:19.643Z,981.66
2022-10-18T10:32:19.866Z,981.69
2022-10-18T10:33:19.586Z,981.67
2022-10-18T10:34:19.561Z,981.66
2022-10-18T10:35:33.966Z,981.64
2022-10-18T10:36:20.537Z,981.69
2022-10-18T10:37:19.767Z,981.66
2022-10-18T10:38:19.509Z,981.65
2022-10-18T10:39:19.509Z,981.65
2022-10-18T10:40:21.233Z,981.64
2022-10-18T10:41:19.553Z,981.63
2022-10-18T10:42:19.696Z,981.62
2022-10-18T10:43:36.494Z,981.64
2022-10-18T10:44:20.432Z,981.68
2022-10-18T10:45:19.422Z,981.66
2022-10-18T10:46:19.426Z,981.69
2022-10-18T10:47:19.636Z,981.67
2022-10-18T10:48:19.383Z,981.65
2022-10-18T10:50:20.392Z,981.60
2022-10-18T10:51:19.341Z,981.56
2022-10-18T10:52:27.349Z,981.60
2022-10-18T10:53:20.319Z,981.54
2022-10-18T10:54:19.292Z,981.56
2022-10-18T10:55:34.832Z,981.53
2022-10-18T10:56:20.270Z,981.54
2022-10-18T10:57:19.489Z,981.45
2022-10-18T10:58:19.269Z,981.50
2022-10-18T10:59:19.236Z,981.52
2022-10-18T11:00:19.237Z,981.49
2022-10-18T11:01:19.207Z,981.49
2022-10-18T11:02:19.437Z,981.49
2022-10-18T11:03:34.503Z,981.53
2022-10-18T11:04:20.224Z,981.52
2022-10-18T11:05:19.156Z,981.43
2022-10-18T11:06:19.147Z,981.40
2022-10-18T11:07:19.376Z,981.35
2022-10-18T11:08:23.733Z,981.34
2022-10-18T11:09:19.113Z,981.36
2022-10-18T11:10:19.086Z,981.41
2022-10-18T11:11:22.221Z,981.36
2022-10-18T11:12:19.093Z,981.35
2022-10-18T11:13:19.053Z,981.33
2022-10-18T11:14:27.149Z,981.29
2022-10-18T11:15:20.026Z,981.31
2022-10-18T11:16:19.002Z,981.29
2022-10-18T11:17:19.232Z,981.27
2022-10-18T11:18:18.991Z,981.26
2022-10-18T11:19:18.995Z,981.26
2022-10-18T11:20:18.952Z,981.21
2022-10-18T11:21:18.944Z,981.22
2022-10-18T11:22:19.160Z,981.18
2022-10-18T11:23:18.919Z,981.18
2022-10-18T11:24:18.901Z,981.12
2022-10-18T11:25:18.890Z,981.12
2022-10-18T11:26:18.882Z,981.12
2022-10-18T11:27:19.119Z,981.12
2022-10-18T11:28:18.850Z,981.13
2022-10-18T11:29:18.847Z,981.09
2022-10-18T11:30:18.828Z,981.05
2022-10-18T11:31:18.816Z,981.10
2022-10-18T11:32:19.058Z,981.05
2022-10-18T11:33:18.812Z,981.06
2022-10-18T11:34:18.772Z,981.07
2022-10-18T11:35:18.765Z,981.02
2022-10-18T11:36:18.796Z,981.03
2022-10-18T11:37:37.465Z,981.00
2022-10-18T11:38:19.718Z,981.03
2022-10-18T11:39:18.714Z,981.06
2022-10-18T11:40:18.702Z,981.05
2022-10-18T11:41:18.685Z,981.00
2022-10-18T11:42:18.915Z,980.98
2022-10-18T11:43:18.666Z,980.98
2022-10-18T11:44:18.655Z,980.95
2022-10-18T11:45:18.700Z,980.93
2022-10-18T11:46:18.622Z,980.84
2022-10-18T11:47:18.915Z,980.80
2022-10-18T11:48:18.605Z,980.81
2022-10-18T11:49:18.579Z,980.79
2022-10-18T11:50:18.569Z,980.82
2022-10-18T11:51:18.560Z,980.78
2022-10-18T11:52:18.777Z,980.78
2022-10-18T11:53:18.546Z,980.79
2022-10-18T11:54:18.519Z,980.81
2022-10-18T11:55:18.510Z,980.78
2022-10-18T11:56:18.494Z,980.76
2022-10-18T11:57:18.709Z,980.73
2022-10-18T11:58:18.516Z,980.73
2022-10-18T11:59:18.454Z,980.70
2022-10-18T12:00:18.497Z,980.72
2022-10-18T12:01:18.433Z,980.66
2022-10-18T12:02:18.701Z,980.64
2022-10-18T12:03:18.407Z,980.56
2022-10-18T12:04:18.399Z,980.60
2022-10-18T12:05:23.707Z,980.59
2022-10-18T12:06:19.355Z,980.59
2022-10-18T12:07:24.702Z,980.54
2022-10-18T12:08:19.342Z,980.56
2022-10-18T12:09:18.334Z,980.51
2022-10-18T12:10:26.223Z,980.44
2022-10-18T12:11:19.302Z,980.48
2022-10-18T12:12:18.523Z,980.47
2022-10-18T12:13:18.312Z,980.51
2022-10-18T12:14:18.261Z,980.50
2022-10-18T12:15:18.251Z,980.49
2022-10-18T12:16:18.232Z,980.52
2022-10-18T12:17:41.748Z,980.45
2022-10-18T12:18:19.206Z,980.43
2022-10-18T12:19:21.884Z,980.41
2022-10-18T12:20:19.179Z,980.46
2022-10-18T12:21:20.826Z,980.41
2022-10-18T12:22:19.410Z,980.46
2022-10-18T12:23:18.148Z,980.44
2022-10-18T12:24:18.137Z,980.44
2022-10-18T12:25:18.123Z,980.45
2022-10-18T12:26:18.103Z,980.41
2022-10-18T12:27:18.326Z,980.42
2022-10-18T12:28:18.078Z,980.36
2022-10-18T12:29:18.067Z,980.39
2022-10-18T12:30:18.054Z,980.43
2022-10-18T12:31:18.036Z,980.45